sensor_id;sensor_type;location;lat;lon;timestamp;pressure;altitude;pressure_sealevel;temperature;humidity
71107;BME280;58763;47.982;11.516;2023-02-15T00:01:23;95385.94;;;-0.18;70.85
71107;BME280;58763;47.982;11.516;2023-02-15T00:03:49;95389.75;;;-0.27;70.66
71107;BME280;58763;47.982;11.516;2023-02-15T00:06:15;95387.41;;;-0.37;70.76
71107;BME280;58763;47.982;11.516;2023-02-15T00:08:40;95382.72;;;-0.35;71.25
71107;BME280;58763;47.982;11.516;2023-02-15T00:11:07;95389.63;;;-0.40;71.31
71107;BME280;58763;47.982;11.516;2023-02-15T00:13:33;95382.28;;;-0.38;70.90
71107;BME280;58763;47.982;11.516;2023-02-15T00:16:06;95379.63;;;-0.38;71.16
71107;BME280;58763;47.982;11.516;2023-02-15T00:18:33;95372.88;;;-0.41;71.16
71107;BME280;58763;47.982;11.516;2023-02-15T00:21:03;95376.34;;;-0.40;71.30
71107;BME280;58763;47.982;11.516;2023-02-15T00:23:29;95372.88;;;-0.41;70.31
71107;BME280;58763;47.982;11.516;2023-02-15T00:26:09;95374.84;;;-0.49;71.11
71107;BME280;58763;47.982;11.516;2023-02-15T00:28:35;95373.06;;;-0.42;70.82
71107;BME280;58763;47.982;11.516;2023-02-15T00:31:11;95368.19;;;-0.39;70.31
71107;BME280;58763;47.982;11.516;2023-02-15T00:33:38;95363.16;;;-0.48;70.85
71107;BME280;58763;47.982;11.516;2023-02-15T00:36:05;95369.31;;;-0.48;70.63
71107;BME280;58763;47.982;11.516;2023-02-15T00:38:31;95365.56;;;-0.53;70.79
71107;BME280;58763;47.982;11.516;2023-02-15T00:40:59;95365.97;;;-0.56;71.03
71107;BME280;58763;47.982;11.516;2023-02-15T00:43:25;95375.50;;;-0.62;70.90
71107;BME280;58763;47.982;11.516;2023-02-15T00:45:51;95361.13;;;-0.68;71.43
71107;BME280;58763;47.982;11.516;2023-02-15T00:48:17;95360.91;;;-0.73;71.49
71107;BME280;58763;47.982;11.516;2023-02-15T00:50:49;95354.00;;;-0.67;71.08
71107;BME280;58763;47.982;11.516;2023-02-15T00:53:15;95361.69;;;-0.72;71.40
71107;BME280;58763;47.982;11.516;2023-02-15T00:55:41;95357.78;;;-0.76;70.94
71107;BME280;58763;47.982;11.516;2023-02-15T00:58:07;95351.91;;;-0.72;71.03
71107;BME280;58763;47.982;11.516;2023-02-15T01:00:33;95354.13;;;-0.75;71.24
71107;BME280;58763;47.982;11.516;2023-02-15T01:02:59;95345.69;;;-0.79;70.92
71107;BME280;58763;47.982;11.516;2023-02-15T01:05:25;95346.38;;;-0.91;71.18
71107;BME280;58763;47.982;11.516;2023-02-15T01:07:50;95337.53;;;-0.98;71.15
71107;BME280;58763;47.982;11.516;2023-02-15T01:10:16;95342.72;;;-1.05;71.06
71107;BME280;58763;47.982;11.516;2023-02-15T01:12:42;95345.03;;;-1.02;71.01
71107;BME280;58763;47.982;11.516;2023-02-15T01:15:08;95344.03;;;-1.01;70.79
71107;BME280;58763;47.982;11.516;2023-02-15T01:17:34;95333.56;;;-1.02;71.17
71107;BME280;58763;47.982;11.516;2023-02-15T01:20:00;95337.41;;;-1.05;71.43
71107;BME280;58763;47.982;11.516;2023-02-15T01:22:26;95332.31;;;-1.06;71.38
71107;BME280;58763;47.982;11.516;2023-02-15T01:24:51;95343.84;;;-1.14;71.09
71107;BME280;58763;47.982;11.516;2023-02-15T01:27:17;95336.91;;;-1.15;71.19
71107;BME280;58763;47.982;11.516;2023-02-15T01:29:43;95331.41;;;-1.13;71.30
71107;BME280;58763;47.982;11.516;2023-02-15T01:32:09;95331.13;;;-1.18;71.42
71107;BME280;58763;47.982;11.516;2023-02-15T01:34:34;95328.50;;;-1.18;71.12
71107;BME280;58763;47.982;11.516;2023-02-15T01:37:00;95329.31;;;-1.18;71.36
71107;BME280;58763;47.982;11.516;2023-02-15T01:39:25;95320.25;;;-1.23;71.44
71107;BME280;58763;47.982;11.516;2023-02-15T01:41:51;95323.09;;;-1.25;71.77
71107;BME280;58763;47.982;11.516;2023-02-15T01:44:48;95314.03;;;-1.16;70.23
71107;BME280;58763;47.982;11.516;2023-02-15T01:47:32;95314.59;;;-1.20;70.71
71107;BME280;58763;47.982;11.516;2023-02-15T01:52:28;95315.06;;;-1.17;70.66
71107;BME280;58763;47.982;11.516;2023-02-15T01:54:55;95315.41;;;-1.20;71.03
71107;BME280;58763;47.982;11.516;2023-02-15T01:57:23;95314.59;;;-1.20;71.11
71107;BME280;58763;47.982;11.516;2023-02-15T01:59:55;95310.59;;;-1.31;71.33
71107;BME280;58763;47.982;11.516;2023-02-15T02:02:23;95305.44;;;-1.32;71.48
71107;BME280;58763;47.982;11.516;2023-02-15T02:04:54;95301.81;;;-1.31;71.17
71107;BME280;58763;47.982;11.516;2023-02-15T02:07:27;95304.63;;;-1.33;70.94
71107;BME280;58763;47.982;11.516;2023-02-15T02:09:53;95300.06;;;-1.39;70.84
71107;BME280;58763;47.982;11.516;2023-02-15T02:12:20;95290.84;;;-1.43;70.56
71107;BME280;58763;47.982;11.516;2023-02-15T02:14:48;95291.84;;;-1.44;70.32
71107;BME280;58763;47.982;11.516;2023-02-15T02:20:28;95286.19;;;-1.56;70.80
71107;BME280;58763;47.982;11.516;2023-02-15T02:29:03;95291.13;;;-1.82;71.10
71107;BME280;58763;47.982;11.516;2023-02-15T02:31:46;95286.31;;;-1.78;71.16
71107;BME280;58763;47.982;11.516;2023-02-15T02:34:33;95286.19;;;-1.70;71.28
71107;BME280;58763;47.982;11.516;2023-02-15T02:37:27;95288.47;;;-1.67;70.90
71107;BME280;58763;47.982;11.516;2023-02-15T02:42:45;95281.28;;;-1.73;70.84
71107;BME280;58763;47.982;11.516;2023-02-15T02:45:27;95272.03;;;-1.77;70.89
71107;BME280;58763;47.982;11.516;2023-02-15T02:47:59;95273.47;;;-1.75;70.75
71107;BME280;58763;47.982;11.516;2023-02-15T02:50:28;95278.69;;;-1.81;70.75
71107;BME280;58763;47.982;11.516;2023-02-15T02:52:55;95288.41;;;-1.88;71.62
71107;BME280;58763;47.982;11.516;2023-02-15T02:55:55;95282.19;;;-1.81;71.36
71107;BME280;58763;47.982;11.516;2023-02-15T02:58:31;95285.56;;;-1.72;70.31
71107;BME280;58763;47.982;11.516;2023-02-15T03:01:03;95282.09;;;-1.87;70.31
71107;BME280;58763;47.982;11.516;2023-02-15T03:03:50;95281.34;;;-1.96;71.33
71107;BME280;58763;47.982;11.516;2023-02-15T03:06:23;95281.09;;;-2.01;71.52
71107;BME280;58763;47.982;11.516;2023-02-15T03:09:01;95284.94;;;-2.03;71.73
71107;BME280;58763;47.982;11.516;2023-02-15T03:11:29;95276.97;;;-2.03;72.13
71107;BME280;58763;47.982;11.516;2023-02-15T03:13:55;95288.03;;;-1.85;70.51
71107;BME280;58763;47.982;11.516;2023-02-15T03:16:22;95283.00;;;-1.95;71.01
71107;BME280;58763;47.982;11.516;2023-02-15T03:18:57;95278.19;;;-1.91;71.17
71107;BME280;58763;47.982;11.516;2023-02-15T03:21:30;95276.16;;;-1.89;70.75
71107;BME280;58763;47.982;11.516;2023-02-15T03:24:05;95282.56;;;-1.98;70.70
71107;BME280;58763;47.982;11.516;2023-02-15T03:26:34;95273.88;;;-1.92;70.82
71107;BME280;58763;47.982;11.516;2023-02-15T03:29:02;95280.53;;;-1.96;70.81
71107;BME280;58763;47.982;11.516;2023-02-15T03:31:33;95272.75;;;-1.98;70.44
71107;BME280;58763;47.982;11.516;2023-02-15T03:34:04;95271.84;;;-2.05;70.59
71107;BME280;58763;47.982;11.516;2023-02-15T03:36:41;95271.03;;;-2.05;71.12
71107;BME280;58763;47.982;11.516;2023-02-15T03:41:56;95275.97;;;-2.02;70.54
71107;BME280;58763;47.982;11.516;2023-02-15T03:44:28;95280.19;;;-2.08;70.80
71107;BME280;58763;47.982;11.516;2023-02-15T03:46:59;95274.41;;;-2.12;71.32
71107;BME280;58763;47.982;11.516;2023-02-15T03:49:47;95279.25;;;-2.15;71.26
71107;BME280;58763;47.982;11.516;2023-02-15T03:52:15;95280.19;;;-2.08;70.95
71107;BME280;58763;47.982;11.516;2023-02-15T03:54:42;95279.59;;;-2.18;71.13
71107;BME280;58763;47.982;11.516;2023-02-15T03:57:21;95277.16;;;-2.20;71.71
71107;BME280;58763;47.982;11.516;2023-02-15T04:05:36;95279.81;;;-2.20;71.52
71107;BME280;58763;47.982;11.516;2023-02-15T04:08:02;95284.63;;;-2.23;71.46
71107;BME280;58763;47.982;11.516;2023-02-15T04:10:28;95284.53;;;-2.30;71.40
71107;BME280;58763;47.982;11.516;2023-02-15T04:13:13;95284.72;;;-2.17;70.42
71107;BME280;58763;47.982;11.516;2023-02-15T04:15:39;95281.53;;;-2.12;70.51
71107;BME280;58763;47.982;11.516;2023-02-15T04:18:23;95284.00;;;-2.11;70.10
71107;BME280;58763;47.982;11.516;2023-02-15T04:21:07;95292.50;;;-2.15;69.62
71107;BME280;58763;47.982;11.516;2023-02-15T04:23:51;95296.88;;;-2.22;70.18
71107;BME280;58763;47.982;11.516;2023-02-15T04:26:35;95296.09;;;-2.31;69.81
71107;BME280;58763;47.982;11.516;2023-02-15T04:29:01;95301.63;;;-2.18;69.83
71107;BME280;58763;47.982;11.516;2023-02-15T04:31:26;95297.50;;;-2.20;69.96
71107;BME280;58763;47.982;11.516;2023-02-15T04:33:52;95295.31;;;-2.31;70.37
71107;BME280;58763;47.982;11.516;2023-02-15T04:36:17;95294.19;;;-2.37;70.67
71107;BME280;58763;47.982;11.516;2023-02-15T04:38:43;95297.38;;;-2.41;71.37
71107;BME280;58763;47.982;11.516;2023-02-15T04:41:08;95298.38;;;-2.42;71.36
71107;BME280;58763;47.982;11.516;2023-02-15T04:43:35;95288.78;;;-2.43;71.72
71107;BME280;58763;47.982;11.516;2023-02-15T04:46:01;95288.84;;;-2.51;71.73
71107;BME280;58763;47.982;11.516;2023-02-15T04:48:27;95288.69;;;-2.50;71.86
71107;BME280;58763;47.982;11.516;2023-02-15T04:50:52;95287.69;;;-2.49;71.62
71107;BME280;58763;47.982;11.516;2023-02-15T04:53:18;95288.31;;;-2.47;71.47
71107;BME280;58763;47.982;11.516;2023-02-15T04:55:43;95290.84;;;-2.53;71.38
71107;BME280;58763;47.982;11.516;2023-02-15T04:58:09;95288.75;;;-2.58;71.46
71107;BME280;58763;47.982;11.516;2023-02-15T05:00:34;95282.81;;;-2.60;72.09
71107;BME280;58763;47.982;11.516;2023-02-15T05:03:00;95289.16;;;-2.46;71.68
71107;BME280;58763;47.982;11.516;2023-02-15T05:05:26;95288.59;;;-2.42;71.22
71107;BME280;58763;47.982;11.516;2023-02-15T05:07:51;95282.38;;;-2.49;71.78
71107;BME280;58763;47.982;11.516;2023-02-15T05:10:17;95283.56;;;-2.51;71.90
71107;BME280;58763;47.982;11.516;2023-02-15T05:12:43;95293.31;;;-2.66;72.20
71107;BME280;58763;47.982;11.516;2023-02-15T05:15:09;95281.53;;;-2.64;72.39
71107;BME280;58763;47.982;11.516;2023-02-15T05:17:35;95282.28;;;-2.55;72.36
71107;BME280;58763;47.982;11.516;2023-02-15T05:20:01;95283.25;;;-2.56;72.98
71107;BME280;58763;47.982;11.516;2023-02-15T05:22:27;95279.53;;;-2.62;73.35
71107;BME280;58763;47.982;11.516;2023-02-15T05:24:52;95284.81;;;-2.62;73.14
71107;BME280;58763;47.982;11.516;2023-02-15T05:27:36;95283.16;;;-2.63;73.96
71107;BME280;58763;47.982;11.516;2023-02-15T05:30:20;95282.91;;;-2.53;73.78
71107;BME280;58763;47.982;11.516;2023-02-15T05:32:47;95279.91;;;-2.50;73.61
71107;BME280;58763;47.982;11.516;2023-02-15T05:35:14;95282.00;;;-2.60;73.86
71107;BME280;58763;47.982;11.516;2023-02-15T05:37:40;95288.75;;;-2.58;73.80
71107;BME280;58763;47.982;11.516;2023-02-15T05:40:08;95288.50;;;-2.48;77.02
71107;BME280;58763;47.982;11.516;2023-02-15T05:42:34;95291.88;;;-2.40;75.53
71107;BME280;58763;47.982;11.516;2023-02-15T05:44:59;95290.56;;;-2.36;74.71
71107;BME280;58763;47.982;11.516;2023-02-15T05:47:25;95299.69;;;-2.38;74.46
71107;BME280;58763;47.982;11.516;2023-02-15T05:49:50;95293.38;;;-2.37;74.16
71107;BME280;58763;47.982;11.516;2023-02-15T05:52:16;95297.47;;;-2.35;74.67
71107;BME280;58763;47.982;11.516;2023-02-15T05:54:41;95303.41;;;-2.33;74.65
71107;BME280;58763;47.982;11.516;2023-02-15T05:57:07;95295.66;;;-2.34;74.81
71107;BME280;58763;47.982;11.516;2023-02-15T05:59:32;95302.44;;;-2.32;75.30
71107;BME280;58763;47.982;11.516;2023-02-15T06:01:58;95303.50;;;-2.41;75.41
71107;BME280;58763;47.982;11.516;2023-02-15T06:04:23;95296.84;;;-2.37;75.48
71107;BME280;58763;47.982;11.516;2023-02-15T06:06:49;95296.34;;;-2.40;75.79
71107;BME280;58763;47.982;11.516;2023-02-15T06:09:14;95294.19;;;-2.37;75.82
71107;BME280;58763;47.982;11.516;2023-02-15T06:11:43;95299.13;;;-2.34;75.30
71107;BME280;58763;47.982;11.516;2023-02-15T06:14:09;95294.53;;;-2.40;75.02
71107;BME280;58763;47.982;11.516;2023-02-15T06:16:34;95298.56;;;-2.44;74.46
71107;BME280;58763;47.982;11.516;2023-02-15T06:19:00;95287.13;;;-2.44;74.53
71107;BME280;58763;47.982;11.516;2023-02-15T06:21:27;95298.91;;;-2.47;74.63
71107;BME280;58763;47.982;11.516;2023-02-15T06:23:53;95294.78;;;-2.49;74.67
71107;BME280;58763;47.982;11.516;2023-02-15T06:26:19;95301.94;;;-2.50;75.14
71107;BME280;58763;47.982;11.516;2023-02-15T06:28:44;95303.38;;;-2.47;75.36
71107;BME280;58763;47.982;11.516;2023-02-15T06:31:10;95302.56;;;-2.48;75.50
71107;BME280;58763;47.982;11.516;2023-02-15T06:33:35;95306.03;;;-2.47;75.92
71107;BME280;58763;47.982;11.516;2023-02-15T06:36:01;95305.31;;;-2.41;75.80
71107;BME280;58763;47.982;11.516;2023-02-15T06:38:30;95308.81;;;-2.41;75.86
71107;BME280;58763;47.982;11.516;2023-02-15T06:40:55;95304.97;;;-2.38;76.06
71107;BME280;58763;47.982;11.516;2023-02-15T06:43:21;95311.25;;;-2.39;76.30
71107;BME280;58763;47.982;11.516;2023-02-15T06:45:47;95306.78;;;-2.39;76.22
71107;BME280;58763;47.982;11.516;2023-02-15T06:48:12;95309.44;;;-2.39;76.51
71107;BME280;58763;47.982;11.516;2023-02-15T06:50:38;95306.78;;;-2.39;76.49
71107;BME280;58763;47.982;11.516;2023-02-15T06:53:04;95310.72;;;-2.35;76.51
71107;BME280;58763;47.982;11.516;2023-02-15T06:55:29;95312.38;;;-2.34;76.43
71107;BME280;58763;47.982;11.516;2023-02-15T06:57:55;95309.00;;;-2.28;76.01
71107;BME280;58763;47.982;11.516;2023-02-15T07:00:20;95313.94;;;-2.25;76.11
71107;BME280;58763;47.982;11.516;2023-02-15T07:02:52;95313.56;;;-2.22;75.98
71107;BME280;58763;47.982;11.516;2023-02-15T07:05:21;95318.22;;;-2.24;75.42
71107;BME280;58763;47.982;11.516;2023-02-15T07:07:46;95319.41;;;-2.26;75.74
71107;BME280;58763;47.982;11.516;2023-02-15T07:10:12;95321.25;;;-2.27;75.76
71107;BME280;58763;47.982;11.516;2023-02-15T07:12:38;95324.00;;;-2.20;76.02
71107;BME280;58763;47.982;11.516;2023-02-15T07:15:15;95319.00;;;-2.15;75.92
71107;BME280;58763;47.982;11.516;2023-02-15T07:17:41;95324.84;;;-2.05;75.86
71107;BME280;58763;47.982;11.516;2023-02-15T07:20:15;95325.81;;;-2.21;74.98
71107;BME280;58763;47.982;11.516;2023-02-15T07:22:43;95322.44;;;-2.29;75.24
71107;BME280;58763;47.982;11.516;2023-02-15T07:25:10;95329.41;;;-2.51;76.42
71107;BME280;58763;47.982;11.516;2023-02-15T07:27:36;95328.91;;;-2.54;77.52
71107;BME280;58763;47.982;11.516;2023-02-15T07:30:02;95332.63;;;-2.41;77.29
71107;BME280;58763;47.982;11.516;2023-02-15T07:32:29;95327.69;;;-2.06;76.43
71107;BME280;58763;47.982;11.516;2023-02-15T07:34:55;95317.75;;;-1.90;76.45
71107;BME280;58763;47.982;11.516;2023-02-15T07:37:20;95316.91;;;-1.90;76.22
71107;BME280;58763;47.982;11.516;2023-02-15T07:39:46;95312.19;;;-1.80;76.77
71107;BME280;58763;47.982;11.516;2023-02-15T07:42:11;95310.13;;;-1.49;75.71
71107;BME280;58763;47.982;11.516;2023-02-15T07:44:37;95305.84;;;-1.35;75.90
71107;BME280;58763;47.982;11.516;2023-02-15T07:47:02;95313.66;;;-1.13;76.02
71107;BME280;58763;47.982;11.516;2023-02-15T07:49:28;95305.41;;;-1.03;75.52
71107;BME280;58763;47.982;11.516;2023-02-15T07:51:53;95309.88;;;-1.04;75.89
71107;BME280;58763;47.982;11.516;2023-02-15T07:54:19;95302.75;;;-1.03;76.36
71107;BME280;58763;47.982;11.516;2023-02-15T07:56:44;95304.53;;;-0.89;76.05
71107;BME280;58763;47.982;11.516;2023-02-15T07:59:10;95300.44;;;-0.71;76.05
71107;BME280;58763;47.982;11.516;2023-02-15T08:01:37;95298.03;;;-0.65;75.62
71107;BME280;58763;47.982;11.516;2023-02-15T08:04:05;95298.28;;;-0.60;75.67
71107;BME280;58763;47.982;11.516;2023-02-15T08:06:33;95288.78;;;-0.48;75.79
71107;BME280;58763;47.982;11.516;2023-02-15T08:08:59;95290.25;;;-0.46;76.38
71107;BME280;58763;47.982;11.516;2023-02-15T08:11:26;95293.56;;;-0.37;76.34
71107;BME280;58763;47.982;11.516;2023-02-15T08:19:03;95290.75;;;-0.08;76.71
71107;BME280;58763;47.982;11.516;2023-02-15T08:21:30;95289.81;;;-0.01;77.14
71107;BME280;58763;47.982;11.516;2023-02-15T08:23:56;95302.56;;;0.11;76.84
71107;BME280;58763;47.982;11.516;2023-02-15T08:26:23;95299.16;;;0.23;77.35
71107;BME280;58763;47.982;11.516;2023-02-15T08:28:50;95297.78;;;0.34;77.75
71107;BME280;58763;47.982;11.516;2023-02-15T08:31:16;95299.47;;;0.41;78.24
71107;BME280;58763;47.982;11.516;2023-02-15T08:33:44;95294.41;;;0.46;78.85
71107;BME280;58763;47.982;11.516;2023-02-15T08:36:13;95290.69;;;0.47;78.05
71107;BME280;58763;47.982;11.516;2023-02-15T08:38:39;95296.03;;;0.47;78.29
71107;BME280;58763;47.982;11.516;2023-02-15T08:41:18;95292.75;;;0.45;78.42
71107;BME280;58763;47.982;11.516;2023-02-15T08:43:45;95292.75;;;0.52;79.46
71107;BME280;58763;47.982;11.516;2023-02-15T08:46:13;95288.91;;;0.54;79.81
71107;BME280;58763;47.982;11.516;2023-02-15T08:48:40;95285.50;;;0.74;81.26
71107;BME280;58763;47.982;11.516;2023-02-15T08:51:07;95296.81;;;0.82;81.36
71107;BME280;58763;47.982;11.516;2023-02-15T08:53:33;95292.19;;;1.04;81.67
71107;BME280;58763;47.982;11.516;2023-02-15T08:56:00;95287.31;;;1.27;82.12
71107;BME280;58763;47.982;11.516;2023-02-15T08:58:26;95289.00;;;1.54;82.39
71107;BME280;58763;47.982;11.516;2023-02-15T09:00:51;95292.72;;;1.92;80.68
71107;BME280;58763;47.982;11.516;2023-02-15T09:03:17;95287.34;;;2.38;81.67
71107;BME280;58763;47.982;11.516;2023-02-15T09:05:43;95284.81;;;2.69;80.28
71107;BME280;58763;47.982;11.516;2023-02-15T09:08:08;95290.25;;;2.94;80.00
71107;BME280;58763;47.982;11.516;2023-02-15T09:10:34;95288.72;;;3.18;78.26
71107;BME280;58763;47.982;11.516;2023-02-15T09:13:00;95287.28;;;3.53;78.54
71107;BME280;58763;47.982;11.516;2023-02-15T09:15:25;95280.47;;;3.88;76.65
71107;BME280;58763;47.982;11.516;2023-02-15T09:17:51;95277.81;;;4.13;75.06
71107;BME280;58763;47.982;11.516;2023-02-15T09:20:17;95282.56;;;4.54;72.07
71107;BME280;58763;47.982;11.516;2023-02-15T09:22:43;95281.19;;;4.87;69.51
71107;BME280;58763;47.982;11.516;2023-02-15T09:25:09;95273.09;;;5.24;67.63
71107;BME280;58763;47.982;11.516;2023-02-15T09:27:34;95274.78;;;5.66;66.86
71107;BME280;58763;47.982;11.516;2023-02-15T09:30:02;95271.63;;;5.87;66.98
71107;BME280;58763;47.982;11.516;2023-02-15T09:32:28;95277.97;;;6.04;66.06
71107;BME280;58763;47.982;11.516;2023-02-15T09:34:54;95277.63;;;6.24;67.77
71107;BME280;58763;47.982;11.516;2023-02-15T09:37:19;95284.16;;;6.63;64.43
71107;BME280;58763;47.982;11.516;2023-02-15T09:39:45;95283.13;;;6.75;63.16
71107;BME280;58763;47.982;11.516;2023-02-15T09:42:21;95281.00;;;6.89;62.58
71107;BME280;58763;47.982;11.516;2023-02-15T09:47:55;95278.66;;;7.44;60.68
71107;BME280;58763;47.982;11.516;2023-02-15T10:01:03;95280.69;;;8.10;55.67
71107;BME280;58763;47.982;11.516;2023-02-15T10:08:51;95277.66;;;8.51;51.51
71107;BME280;58763;47.982;11.516;2023-02-15T10:11:38;95274.41;;;8.71;51.91
71107;BME280;58763;47.982;11.516;2023-02-15T10:14:21;95274.84;;;8.79;50.77
71107;BME280;58763;47.982;11.516;2023-02-15T10:28:09;95260.34;;;9.24;50.11
71107;BME280;58763;47.982;11.516;2023-02-15T10:30:51;95267.28;;;9.41;50.89
71107;BME280;58763;47.982;11.516;2023-02-15T10:33:41;95266.16;;;9.59;51.13
71107;BME280;58763;47.982;11.516;2023-02-15T10:42:01;95250.88;;;9.69;50.94
71107;BME280;58763;47.982;11.516;2023-02-15T10:44:51;95251.91;;;9.90;51.74
71107;BME280;58763;47.982;11.516;2023-02-15T10:47:51;95246.03;;;9.98;51.02
71107;BME280;58763;47.982;11.516;2023-02-15T10:56:02;95237.97;;;10.30;50.23
71107;BME280;58763;47.982;11.516;2023-02-15T11:06:58;95228.03;;;10.77;48.09
71107;BME280;58763;47.982;11.516;2023-02-15T11:09:32;95229.44;;;10.85;47.59
71107;BME280;58763;47.982;11.516;2023-02-15T11:11:59;95228.47;;;11.01;48.44
71107;BME280;58763;47.982;11.516;2023-02-15T11:14:39;95222.56;;;11.14;49.73
71107;BME280;58763;47.982;11.516;2023-02-15T11:17:17;95226.09;;;11.15;50.16
71107;BME280;58763;47.982;11.516;2023-02-15T11:19:56;95221.72;;;11.03;49.84
71107;BME280;58763;47.982;11.516;2023-02-15T11:22:23;95220.31;;;10.96;49.94
71107;BME280;58763;47.982;11.516;2023-02-15T11:24:50;95214.44;;;11.14;50.25
71107;BME280;58763;47.982;11.516;2023-02-15T11:27:22;95211.25;;;11.27;48.22
71107;BME280;58763;47.982;11.516;2023-02-15T11:29:54;95205.28;;;11.20;47.79
71107;BME280;58763;47.982;11.516;2023-02-15T11:32:26;95206.31;;;11.14;47.49
71107;BME280;58763;47.982;11.516;2023-02-15T11:38:22;95197.22;;;11.40;46.92
71107;BME280;58763;47.982;11.516;2023-02-15T11:40:54;95188.00;;;11.41;47.50
71107;BME280;58763;47.982;11.516;2023-02-15T11:45:56;95174.59;;;11.82;46.02
71107;BME280;58763;47.982;11.516;2023-02-15T11:48:21;95164.31;;;11.94;45.94
71107;BME280;58763;47.982;11.516;2023-02-15T11:50:47;95175.19;;;12.04;45.84
71107;BME280;58763;47.982;11.516;2023-02-15T11:53:18;95160.53;;;12.25;46.00
71107;BME280;58763;47.982;11.516;2023-02-15T11:55:48;95163.22;;;12.40;45.47
71107;BME280;58763;47.982;11.516;2023-02-15T11:58:39;95153.97;;;12.51;44.53
71107;BME280;58763;47.982;11.516;2023-02-15T12:01:11;95153.97;;;12.61;42.73
71107;BME280;58763;47.982;11.516;2023-02-15T12:03:54;95155.06;;;12.60;43.33
71107;BME280;58763;47.982;11.516;2023-02-15T12:06:30;95148.78;;;12.70;44.17
71107;BME280;58763;47.982;11.516;2023-02-15T12:09:17;95151.25;;;12.76;43.82
71107;BME280;58763;47.982;11.516;2023-02-15T12:11:46;95151.69;;;12.98;43.94
71107;BME280;58763;47.982;11.516;2023-02-15T12:14:12;95143.03;;;12.96;43.42
71107;BME280;58763;47.982;11.516;2023-02-15T12:16:55;95133.88;;;12.67;41.99
71107;BME280;58763;47.982;11.516;2023-02-15T12:19:31;95134.38;;;12.79;42.30
71107;BME280;58763;47.982;11.516;2023-02-15T12:21:59;95133.84;;;12.72;41.60
71107;BME280;58763;47.982;11.516;2023-02-15T12:24:32;95133.31;;;12.80;42.12
71107;BME280;58763;47.982;11.516;2023-02-15T12:27:19;95127.34;;;12.73;41.45
71107;BME280;58763;47.982;11.516;2023-02-15T12:29:56;95122.53;;;12.55;42.21
71107;BME280;58763;47.982;11.516;2023-02-15T12:32:26;95125.16;;;12.80;41.60
71107;BME280;58763;47.982;11.516;2023-02-15T12:34:55;95125.09;;;12.95;41.48
71107;BME280;58763;47.982;11.516;2023-02-15T12:37:29;95120.19;;;13.07;41.39
71107;BME280;58763;47.982;11.516;2023-02-15T12:40:10;95118.50;;;13.27;42.54
71107;BME280;58763;47.982;11.516;2023-02-15T12:42:44;95115.38;;;13.53;40.91
71107;BME280;58763;47.982;11.516;2023-02-15T12:45:29;95109.25;;;13.28;40.59
71107;BME280;58763;47.982;11.516;2023-02-15T12:48:16;95110.88;;;13.29;42.21
71107;BME280;58763;47.982;11.516;2023-02-15T12:50:49;95113.31;;;13.30;42.57
71107;BME280;58763;47.982;11.516;2023-02-15T12:53:19;95103.94;;;13.51;41.65
71107;BME280;58763;47.982;11.516;2023-02-15T12:58:23;95100.06;;;13.67;41.36
71107;BME280;58763;47.982;11.516;2023-02-15T13:03:35;95092.03;;;13.86;41.24
71107;BME280;58763;47.982;11.516;2023-02-15T13:06:03;95094.13;;;13.94;41.00
71107;BME280;58763;47.982;11.516;2023-02-15T13:08:48;95088.03;;;14.07;40.22
71107;BME280;58763;47.982;11.516;2023-02-15T13:11:21;95087.63;;;13.95;40.91
71107;BME280;58763;47.982;11.516;2023-02-15T13:13:56;95089.22;;;13.96;40.86
71107;BME280;58763;47.982;11.516;2023-02-15T13:16:30;95078.50;;;14.10;41.17
71107;BME280;58763;47.982;11.516;2023-02-15T13:18:57;95075.50;;;14.11;39.91
71107;BME280;58763;47.982;11.516;2023-02-15T13:21:28;95070.50;;;14.23;38.83
71107;BME280;58763;47.982;11.516;2023-02-15T13:23:59;95060.75;;;14.17;38.53
71107;BME280;58763;47.982;11.516;2023-02-15T13:26:29;95060.66;;;14.32;39.50
71107;BME280;58763;47.982;11.516;2023-02-15T13:28:59;95070.06;;;14.40;38.80
71107;BME280;58763;47.982;11.516;2023-02-15T13:31:29;95064.78;;;14.53;38.68
71107;BME280;58763;47.982;11.516;2023-02-15T13:34:10;95068.56;;;14.81;37.91
71107;BME280;58763;47.982;11.516;2023-02-15T13:36:55;95063.94;;;14.82;36.88
71107;BME280;58763;47.982;11.516;2023-02-15T13:42:32;95064.19;;;14.57;38.71
71107;BME280;58763;47.982;11.516;2023-02-15T13:48:00;95064.88;;;14.43;36.35
71107;BME280;58763;47.982;11.516;2023-02-15T13:58:06;95052.91;;;14.44;36.29
71107;BME280;58763;47.982;11.516;2023-02-15T14:00:53;95054.88;;;14.63;36.85
71107;BME280;58763;47.982;11.516;2023-02-15T14:14:45;95055.06;;;15.13;40.73
71107;BME280;58763;47.982;11.516;2023-02-15T14:17:27;95058.00;;;15.17;40.31
71107;BME280;58763;47.982;11.516;2023-02-15T14:20:36;95051.91;;;15.25;40.44
71107;BME280;58763;47.982;11.516;2023-02-15T14:25:53;95047.78;;;15.09;39.29
71107;BME280;58763;47.982;11.516;2023-02-15T14:28:58;95051.84;;;15.11;39.76
71107;BME280;58763;47.982;11.516;2023-02-15T14:31:41;95043.28;;;14.99;40.13
71107;BME280;58763;47.982;11.516;2023-02-15T14:34:20;95051.44;;;14.99;40.32
71107;BME280;58763;47.982;11.516;2023-02-15T14:36:49;95053.13;;;14.95;40.45
71107;BME280;58763;47.982;11.516;2023-02-15T14:39:44;95051.28;;;14.91;40.82
71107;BME280;58763;47.982;11.516;2023-02-15T14:45:23;95047.03;;;14.80;41.22
71107;BME280;58763;47.982;11.516;2023-02-15T14:48:31;95048.72;;;14.76;42.08
71107;BME280;58763;47.982;11.516;2023-02-15T14:50:59;95040.41;;;14.67;42.01
71107;BME280;58763;47.982;11.516;2023-02-15T14:53:34;95041.63;;;14.56;41.47
71107;BME280;58763;47.982;11.516;2023-02-15T15:01:33;95039.56;;;14.14;41.75
71107;BME280;58763;47.982;11.516;2023-02-15T15:04:28;95035.50;;;13.83;42.08
71107;BME280;58763;47.982;11.516;2023-02-15T15:09:39;95034.53;;;13.69;43.22
71107;BME280;58763;47.982;11.516;2023-02-15T15:15:01;95045.72;;;13.62;44.01
71107;BME280;58763;47.982;11.516;2023-02-15T15:20:03;95042.72;;;13.64;43.90
71107;BME280;58763;47.982;11.516;2023-02-15T15:22:30;95043.38;;;13.51;45.26